Terminal Aerodrome Forecast
Issued by NWS

Home | Current Version | Previous Version | Text Only | Print | Product List | Glossary Off
Versions: 1 2 3 4 5 6 7 8 9 10 11 12 13 14 15 16 17 18 19 20 21 22 23 24

303
FTUS43 KLOT 191501 AAA
TAFORD
TAF AMD
KORD 191501Z 1915/2018 VRB05KT P6SM FEW250
     FM191800 09006KT P6SM FEW250
     FM192100 14006KT P6SM FEW250
     FM201500 19007KT P6SM SKC=

USA.gov is the U.S. government's official web portal to all federal, state and local government web resources and services.